NOZ390 ENGM-ENSB
Flight info
| Callsign | NOZ390 |
|---|---|
| Flight time | 2h 42m |
| Altitude | 34000 |
| Route | RIBBE DCT OMEXA DCT SUSES |
| Aircraft | B738/M-SDE2E3FGHIRWXY/LB1 |
Departure
| Time | 2026-05-07 13:14 |
|---|---|
| Airport | Oslo-Gardermoen International Airport (ENGM) |
Arrival
| Time | 2026-05-07 15:57 |
|---|---|
| Airport | Svalbard Airport, Longyear (ENSB) |
| Time | Latitude | Longitude | Altitude | Speed | Heading |
|---|---|---|---|---|---|
| 2026-05-07 12:55 | 60.19564 | 11.09427 | 678 ft | 0 kts | 196° |
| 2026-05-07 13:04 | 60.19580 | 11.09436 | 684 ft | 4 kts | 196° |
| 2026-05-07 13:05 | 60.19606 | 11.09451 | 684 ft | 4 kts | 196° |
| 2026-05-07 13:05 | 60.19613 | 11.09455 | 684 ft | 1 kts | 196° |
| 2026-05-07 13:08 | 60.19611 | 11.09436 | 684 ft | 2 kts | 278° |
| 2026-05-07 13:08 | 60.19697 | 11.09298 | 678 ft | 12 kts | 289° |
| 2026-05-07 13:08 | 60.19720 | 11.09136 | 682 ft | 12 kts | 286° |
| 2026-05-07 13:09 | 60.19742 | 11.08978 | 681 ft | 12 kts | 286° |
| 2026-05-07 13:09 | 60.19770 | 11.08782 | 674 ft | 14 kts | 286° |
| 2026-05-07 13:09 | 60.19842 | 11.08709 | 678 ft | 13 kts | 13° |
| 2026-05-07 13:09 | 60.19933 | 11.08764 | 679 ft | 16 kts | 16° |
| 2026-05-07 13:10 | 60.20055 | 11.08832 | 679 ft | 21 kts | 15° |
| 2026-05-07 13:10 | 60.20207 | 11.08921 | 680 ft | 24 kts | 16° |
| 2026-05-07 13:10 | 60.20376 | 11.09019 | 681 ft | 25 kts | 16° |
| 2026-05-07 13:10 | 60.20548 | 11.09117 | 681 ft | 27 kts | 16° |
| 2026-05-07 13:11 | 60.20732 | 11.09224 | 682 ft | 28 kts | 16° |
| 2026-05-07 13:11 | 60.20916 | 11.09329 | 684 ft | 27 kts | 17° |
| 2026-05-07 13:11 | 60.21088 | 11.09429 | 685 ft | 25 kts | 15° |
| 2026-05-07 13:11 | 60.21250 | 11.09524 | 685 ft | 23 kts | 17° |
| 2026-05-07 13:12 | 60.21403 | 11.09611 | 686 ft | 23 kts | 15° |
| 2026-05-07 13:12 | 60.21496 | 11.09630 | 683 ft | 19 kts | 341° |
| 2026-05-07 13:12 | 60.21574 | 11.09319 | 683 ft | 19 kts | 284° |
| 2026-05-07 13:12 | 60.21575 | 11.09151 | 679 ft | 7 kts | 214° |
| 2026-05-07 13:13 | 60.21561 | 11.09142 | 683 ft | 0 kts | 197° |
| 2026-05-07 13:13 | 60.21561 | 11.09141 | 683 ft | 1 kts | 197° |
| 2026-05-07 13:14 | 60.21554 | 11.09137 | 683 ft | 6 kts | 197° |
| 2026-05-07 13:14 | 60.18328 | 11.07223 | 1418 ft | 182 kts | 199° |
| 2026-05-07 13:14 | 60.17108 | 11.06421 | 2122 ft | 195 kts | 206° |
| 2026-05-07 13:15 | 60.16107 | 11.04443 | 2391 ft | 217 kts | 245° |
| 2026-05-07 13:15 | 60.15490 | 11.01538 | 2849 ft | 235 kts | 247° |
| 2026-05-07 13:15 | 60.14802 | 10.98374 | 3281 ft | 256 kts | 246° |
| 2026-05-07 13:15 | 60.14256 | 10.94985 | 4120 ft | 257 kts | 267° |
| 2026-05-07 13:16 | 60.14450 | 10.91428 | 5026 ft | 258 kts | 281° |
| 2026-05-07 13:16 | 60.14794 | 10.87876 | 5842 ft | 262 kts | 281° |
| 2026-05-07 13:16 | 60.15192 | 10.84286 | 6622 ft | 266 kts | 290° |
| 2026-05-07 13:16 | 60.16231 | 10.81245 | 7437 ft | 268 kts | 320° |
| 2026-05-07 13:17 | 60.17879 | 10.79536 | 8301 ft | 270 kts | 345° |
| 2026-05-07 13:17 | 60.19752 | 10.78990 | 9123 ft | 274 kts | 352° |
| 2026-05-07 13:17 | 60.21668 | 10.78718 | 9906 ft | 279 kts | 0° |
| 2026-05-07 13:17 | 60.23558 | 10.79804 | 10493 ft | 295 kts | 27° |
| 2026-05-07 13:18 | 60.25356 | 10.82124 | 10683 ft | 319 kts | 29° |
| 2026-05-07 13:18 | 60.27319 | 10.84528 | 10882 ft | 340 kts | 28° |
| 2026-05-07 13:18 | 60.29385 | 10.87030 | 11354 ft | 351 kts | 28° |
| 2026-05-07 13:18 | 60.31493 | 10.89596 | 12054 ft | 356 kts | 28° |
| 2026-05-07 13:19 | 60.33622 | 10.92205 | 12801 ft | 359 kts | 28° |
| 2026-05-07 13:19 | 60.35768 | 10.94849 | 13488 ft | 364 kts | 28° |
| 2026-05-07 13:19 | 60.37941 | 10.97537 | 14122 ft | 369 kts | 28° |
| 2026-05-07 13:19 | 60.40142 | 11.00268 | 14728 ft | 373 kts | 28° |
| 2026-05-07 13:20 | 60.42366 | 11.03034 | 15341 ft | 377 kts | 28° |
| 2026-05-07 13:20 | 60.44614 | 11.05835 | 15946 ft | 382 kts | 27° |
| 2026-05-07 13:20 | 60.46887 | 11.08672 | 16554 ft | 386 kts | 27° |
| 2026-05-07 13:20 | 60.49155 | 11.11508 | 17149 ft | 390 kts | 27° |
| 2026-05-07 13:21 | 60.51477 | 11.14416 | 17715 ft | 395 kts | 27° |
| 2026-05-07 13:21 | 60.53824 | 11.17360 | 18290 ft | 399 kts | 27° |
| 2026-05-07 13:21 | 60.56194 | 11.20340 | 18803 ft | 402 kts | 27° |
| 2026-05-07 13:21 | 60.58584 | 11.23352 | 19352 ft | 405 kts | 27° |
| 2026-05-07 13:22 | 60.60986 | 11.26378 | 19885 ft | 407 kts | 26° |
| 2026-05-07 13:22 | 60.63404 | 11.29431 | 20407 ft | 411 kts | 26° |
| 2026-05-07 13:22 | 60.65842 | 11.32517 | 20921 ft | 414 kts | 26° |
| 2026-05-07 13:22 | 60.68294 | 11.35627 | 21441 ft | 417 kts | 26° |
| 2026-05-07 13:23 | 60.70763 | 11.38760 | 21954 ft | 420 kts | 26° |
| 2026-05-07 13:23 | 60.73291 | 11.41735 | 22427 ft | 418 kts | 18° |
| 2026-05-07 13:23 | 60.75993 | 11.43759 | 22917 ft | 411 kts | 7° |
| 2026-05-07 13:23 | 60.78783 | 11.44818 | 23442 ft | 404 kts | 357° |
| 2026-05-07 13:24 | 60.81582 | 11.45167 | 23911 ft | 404 kts | 355° |
| 2026-05-07 13:24 | 60.84394 | 11.45449 | 24322 ft | 406 kts | 355° |
| 2026-05-07 13:24 | 60.87219 | 11.45735 | 24780 ft | 408 kts | 355° |
| 2026-05-07 13:24 | 60.90060 | 11.46046 | 25172 ft | 410 kts | 355° |
| 2026-05-07 13:25 | 60.92915 | 11.46380 | 25556 ft | 412 kts | 355° |
| 2026-05-07 13:25 | 60.95779 | 11.46730 | 25908 ft | 414 kts | 355° |
| 2026-05-07 13:25 | 60.98663 | 11.47087 | 26269 ft | 416 kts | 355° |
| 2026-05-07 13:25 | 61.01560 | 11.47451 | 26642 ft | 418 kts | 355° |
| 2026-05-07 13:26 | 61.04463 | 11.47815 | 27017 ft | 419 kts | 355° |
| 2026-05-07 13:26 | 61.07376 | 11.48176 | 27351 ft | 420 kts | 354° |
| 2026-05-07 13:26 | 61.10297 | 11.48355 | 27649 ft | 420 kts | 352° |
| 2026-05-07 13:26 | 61.13221 | 11.48362 | 27934 ft | 421 kts | 351° |
| 2026-05-07 13:27 | 61.16156 | 11.48315 | 28250 ft | 422 kts | 351° |
| 2026-05-07 13:27 | 61.19103 | 11.48274 | 28569 ft | 424 kts | 351° |
| 2026-05-07 13:27 | 61.22061 | 11.48252 | 28860 ft | 427 kts | 351° |
| 2026-05-07 13:27 | 61.25038 | 11.48249 | 29142 ft | 429 kts | 351° |
| 2026-05-07 13:28 | 61.28024 | 11.48258 | 29448 ft | 430 kts | 351° |
| 2026-05-07 13:28 | 61.31021 | 11.48273 | 29835 ft | 430 kts | 351° |
| 2026-05-07 13:28 | 61.34007 | 11.48290 | 30289 ft | 428 kts | 351° |
| 2026-05-07 13:28 | 61.36975 | 11.48304 | 30632 ft | 427 kts | 351° |
| 2026-05-07 13:29 | 61.39959 | 11.48455 | 30850 ft | 432 kts | 353° |
| 2026-05-07 13:29 | 61.42971 | 11.48794 | 31071 ft | 435 kts | 354° |
| 2026-05-07 13:29 | 61.45992 | 11.49219 | 31427 ft | 435 kts | 355° |
| 2026-05-07 13:29 | 61.49004 | 11.49672 | 31751 ft | 434 kts | 355° |
| 2026-05-07 13:30 | 61.52018 | 11.50117 | 31967 ft | 435 kts | 355° |
| 2026-05-07 13:30 | 61.55049 | 11.50550 | 32198 ft | 436 kts | 355° |
| 2026-05-07 13:30 | 61.58075 | 11.50972 | 32495 ft | 436 kts | 355° |
| 2026-05-07 13:30 | 61.61104 | 11.51384 | 32780 ft | 436 kts | 355° |
| 2026-05-07 13:31 | 61.64134 | 11.51787 | 33009 ft | 438 kts | 355° |
| 2026-05-07 13:31 | 61.67175 | 11.52189 | 33253 ft | 438 kts | 355° |
| 2026-05-07 13:31 | 61.70219 | 11.52592 | 33526 ft | 438 kts | 355° |
| 2026-05-07 13:31 | 61.73259 | 11.52991 | 33754 ft | 439 kts | 355° |
| 2026-05-07 13:32 | 61.76312 | 11.53396 | 34019 ft | 440 kts | 355° |
| 2026-05-07 13:32 | 61.79366 | 11.53802 | 34219 ft | 440 kts | 355° |
| 2026-05-07 13:32 | 61.82424 | 11.54212 | 34396 ft | 441 kts | 355° |
| 2026-05-07 13:32 | 61.85489 | 11.54622 | 34545 ft | 442 kts | 355° |
| 2026-05-07 13:33 | 61.88559 | 11.55032 | 34702 ft | 443 kts | 355° |
| 2026-05-07 13:33 | 61.91634 | 11.55446 | 34857 ft | 443 kts | 356° |
| 2026-05-07 13:33 | 61.94710 | 11.55863 | 35029 ft | 443 kts | 356° |
| 2026-05-07 13:33 | 61.97794 | 11.56277 | 35067 ft | 446 kts | 356° |
| 2026-05-07 13:34 | 62.07118 | 11.57538 | 35095 ft | 447 kts | 356° |
| 2026-05-07 13:35 | 62.13269 | 11.58376 | 35073 ft | 445 kts | 356° |
| 2026-05-07 13:35 | 62.19430 | 11.59220 | 35087 ft | 443 kts | 356° |
| 2026-05-07 13:36 | 62.25570 | 11.60064 | 35084 ft | 442 kts | 356° |
| 2026-05-07 13:36 | 62.31710 | 11.60912 | 35088 ft | 442 kts | 356° |
| 2026-05-07 13:37 | 62.37851 | 11.61753 | 35090 ft | 443 kts | 356° |
| 2026-05-07 13:37 | 62.44014 | 11.62605 | 35096 ft | 444 kts | 356° |
| 2026-05-07 13:38 | 62.50193 | 11.63466 | 35089 ft | 446 kts | 356° |
| 2026-05-07 13:38 | 62.56397 | 11.64334 | 35091 ft | 447 kts | 356° |
| 2026-05-07 13:39 | 62.62609 | 11.65206 | 35063 ft | 448 kts | 356° |
| 2026-05-07 13:39 | 62.68849 | 11.66085 | 35068 ft | 450 kts | 357° |
| 2026-05-07 13:40 | 62.75111 | 11.66969 | 35077 ft | 452 kts | 357° |
| 2026-05-07 13:40 | 62.81389 | 11.67869 | 35093 ft | 452 kts | 357° |
| 2026-05-07 13:41 | 62.86610 | 11.68613 | 35096 ft | 453 kts | 357° |
| 2026-05-07 13:41 | 62.92893 | 11.69516 | 35107 ft | 452 kts | 357° |
| 2026-05-07 13:42 | 62.99176 | 11.70428 | 35116 ft | 453 kts | 358° |
| 2026-05-07 13:42 | 63.05457 | 11.71333 | 35118 ft | 452 kts | 358° |
| 2026-05-07 13:43 | 63.11739 | 11.72249 | 35113 ft | 452 kts | 358° |
| 2026-05-07 13:43 | 63.18017 | 11.73164 | 35112 ft | 452 kts | 358° |
| 2026-05-07 13:44 | 63.24288 | 11.74085 | 35121 ft | 451 kts | 358° |
| 2026-05-07 13:44 | 63.30558 | 11.75006 | 35123 ft | 452 kts | 358° |
| 2026-05-07 13:45 | 63.36834 | 11.75933 | 35116 ft | 452 kts | 358° |
| 2026-05-07 13:45 | 63.43108 | 11.76865 | 35124 ft | 452 kts | 358° |
| 2026-05-07 13:46 | 63.49387 | 11.77799 | 35116 ft | 453 kts | 358° |
| 2026-05-07 13:46 | 63.55681 | 11.78743 | 35121 ft | 454 kts | 358° |
| 2026-05-07 13:47 | 63.61986 | 11.79695 | 35131 ft | 455 kts | 359° |
| 2026-05-07 13:47 | 63.68306 | 11.80649 | 35127 ft | 455 kts | 359° |
| 2026-05-07 13:48 | 63.74626 | 11.81610 | 35129 ft | 455 kts | 359° |
| 2026-05-07 13:48 | 63.80958 | 11.82574 | 35131 ft | 456 kts | 359° |
| 2026-05-07 13:49 | 63.87298 | 11.83547 | 35120 ft | 456 kts | 359° |
| 2026-05-07 13:49 | 63.93638 | 11.84525 | 35128 ft | 457 kts | 359° |
| 2026-05-07 13:50 | 63.99984 | 11.85504 | 35112 ft | 458 kts | 359° |
| 2026-05-07 13:50 | 64.06333 | 11.86488 | 35117 ft | 457 kts | 359° |
| 2026-05-07 13:51 | 64.12678 | 11.87482 | 35110 ft | 457 kts | 359° |
| 2026-05-07 13:51 | 64.18973 | 11.88471 | 35112 ft | 456 kts | 359° |
| 2026-05-07 13:52 | 64.25299 | 11.89464 | 35107 ft | 456 kts | 359° |
| 2026-05-07 13:52 | 64.31621 | 11.90467 | 35107 ft | 456 kts | 359° |
| 2026-05-07 13:53 | 64.37944 | 11.91472 | 35099 ft | 456 kts | 359° |
| 2026-05-07 13:53 | 64.44272 | 11.92482 | 35104 ft | 455 kts | 359° |
| 2026-05-07 13:54 | 64.50593 | 11.93491 | 35128 ft | 456 kts | 359° |
| 2026-05-07 13:54 | 64.56931 | 11.94516 | 35107 ft | 456 kts | 359° |
| 2026-05-07 13:55 | 64.63263 | 11.95545 | 35109 ft | 456 kts | 359° |
| 2026-05-07 13:55 | 64.69594 | 11.96579 | 35109 ft | 456 kts | 359° |
| 2026-05-07 13:56 | 64.75939 | 11.97615 | 35101 ft | 457 kts | 359° |
| 2026-05-07 13:56 | 64.82290 | 11.98655 | 35130 ft | 458 kts | 360° |
| 2026-05-07 13:57 | 64.88655 | 11.99702 | 35110 ft | 458 kts | 0° |
| 2026-05-07 13:57 | 64.95023 | 12.00755 | 35105 ft | 459 kts | 0° |
| 2026-05-07 13:58 | 65.01390 | 12.01815 | 35106 ft | 459 kts | 0° |
| 2026-05-07 13:58 | 65.07758 | 12.02881 | 35105 ft | 459 kts | 0° |
| 2026-05-07 13:59 | 65.14117 | 12.03951 | 35124 ft | 459 kts | 0° |
| 2026-05-07 13:59 | 65.20453 | 12.05022 | 35107 ft | 460 kts | 0° |
| 2026-05-07 14:00 | 65.26834 | 12.06104 | 35096 ft | 460 kts | 0° |
| 2026-05-07 14:00 | 65.33258 | 12.07200 | 35096 ft | 460 kts | 0° |
| 2026-05-07 14:01 | 65.39595 | 12.08286 | 35094 ft | 460 kts | 0° |
| 2026-05-07 14:01 | 65.45985 | 12.09386 | 35120 ft | 460 kts | 1° |
| 2026-05-07 14:02 | 65.52378 | 12.10490 | 35103 ft | 461 kts | 1° |
| 2026-05-07 14:02 | 65.58770 | 12.11606 | 35092 ft | 461 kts | 1° |
| 2026-05-07 14:03 | 65.65098 | 12.12713 | 35090 ft | 460 kts | 1° |
| 2026-05-07 14:03 | 65.71475 | 12.13837 | 35094 ft | 459 kts | 1° |
| 2026-05-07 14:04 | 65.77843 | 12.14960 | 35114 ft | 458 kts | 1° |
| 2026-05-07 14:04 | 65.84205 | 12.16087 | 35090 ft | 458 kts | 1° |
| 2026-05-07 14:05 | 65.90574 | 12.17219 | 35089 ft | 459 kts | 1° |
| 2026-05-07 14:05 | 65.96936 | 12.18372 | 35086 ft | 459 kts | 1° |
| 2026-05-07 14:06 | 66.03305 | 12.19518 | 35105 ft | 459 kts | 1° |
| 2026-05-07 14:06 | 66.09675 | 12.20672 | 35099 ft | 458 kts | 1° |
| 2026-05-07 14:07 | 66.15583 | 12.21738 | 35090 ft | 458 kts | 1° |
| 2026-05-07 14:07 | 66.21949 | 12.22897 | 35084 ft | 459 kts | 1° |
| 2026-05-07 14:08 | 66.28258 | 12.24061 | 35083 ft | 459 kts | 1° |
| 2026-05-07 14:08 | 66.34461 | 12.25206 | 35080 ft | 459 kts | 1° |
| 2026-05-07 14:09 | 66.40828 | 12.26385 | 35074 ft | 459 kts | 1° |
| 2026-05-07 14:09 | 66.47196 | 12.27571 | 35077 ft | 459 kts | 1° |
| 2026-05-07 14:10 | 66.53567 | 12.28766 | 35071 ft | 459 kts | 1° |
| 2026-05-07 14:10 | 66.59934 | 12.29968 | 35070 ft | 459 kts | 1° |
| 2026-05-07 14:11 | 66.66312 | 12.31179 | 35066 ft | 459 kts | 1° |
| 2026-05-07 14:11 | 66.72642 | 12.32384 | 35067 ft | 459 kts | 1° |
| 2026-05-07 14:12 | 66.78999 | 12.33599 | 35074 ft | 459 kts | 2° |
| 2026-05-07 14:12 | 66.85367 | 12.34824 | 35066 ft | 458 kts | 2° |
| 2026-05-07 14:13 | 66.91732 | 12.36065 | 35067 ft | 458 kts | 2° |
| 2026-05-07 14:13 | 66.98088 | 12.37299 | 35070 ft | 458 kts | 2° |
| 2026-05-07 14:14 | 67.04450 | 12.38534 | 35071 ft | 458 kts | 2° |
| 2026-05-07 14:14 | 67.10808 | 12.39779 | 35065 ft | 459 kts | 2° |
| 2026-05-07 14:15 | 67.17172 | 12.41040 | 35058 ft | 458 kts | 2° |
| 2026-05-07 14:15 | 67.23521 | 12.42300 | 35055 ft | 458 kts | 2° |
| 2026-05-07 14:16 | 67.29880 | 12.43567 | 35050 ft | 459 kts | 2° |
| 2026-05-07 14:16 | 67.36244 | 12.44836 | 35056 ft | 459 kts | 2° |
| 2026-05-07 14:17 | 67.42607 | 12.46125 | 35059 ft | 459 kts | 2° |
| 2026-05-07 14:17 | 67.48974 | 12.47419 | 35048 ft | 459 kts | 2° |
| 2026-05-07 14:18 | 67.55297 | 12.48707 | 35049 ft | 458 kts | 2° |
| 2026-05-07 14:18 | 67.61656 | 12.50010 | 35045 ft | 458 kts | 2° |
| 2026-05-07 14:19 | 67.68011 | 12.51321 | 35039 ft | 458 kts | 2° |
| 2026-05-07 14:19 | 67.74401 | 12.52654 | 35056 ft | 458 kts | 2° |
| 2026-05-07 14:20 | 67.80758 | 12.53982 | 35048 ft | 458 kts | 2° |
| 2026-05-07 14:20 | 67.87070 | 12.55301 | 35048 ft | 459 kts | 2° |
| 2026-05-07 14:21 | 67.93434 | 12.56635 | 35051 ft | 459 kts | 2° |
| 2026-05-07 14:21 | 67.97588 | 12.57515 | 35046 ft | 459 kts | 2° |
| 2026-05-07 14:22 | 68.03599 | 12.58794 | 35039 ft | 459 kts | 2° |
| 2026-05-07 14:22 | 68.09636 | 12.60059 | 35036 ft | 459 kts | 3° |
| 2026-05-07 14:23 | 68.15723 | 12.61380 | 35039 ft | 459 kts | 3° |
| 2026-05-07 14:23 | 68.21924 | 12.62729 | 35035 ft | 459 kts | 3° |
| 2026-05-07 14:24 | 68.28235 | 12.64099 | 35031 ft | 459 kts | 2° |
| 2026-05-07 14:24 | 68.34592 | 12.65484 | 35034 ft | 459 kts | 3° |
| 2026-05-07 14:25 | 68.40923 | 12.66873 | 35039 ft | 459 kts | 2° |
| 2026-05-07 14:25 | 68.47295 | 12.68281 | 35032 ft | 460 kts | 2° |
| 2026-05-07 14:26 | 68.53670 | 12.69698 | 35026 ft | 460 kts | 3° |
| 2026-05-07 14:26 | 68.60049 | 12.71127 | 35029 ft | 460 kts | 3° |
| 2026-05-07 14:27 | 68.66424 | 12.72561 | 35026 ft | 459 kts | 2° |
| 2026-05-07 14:27 | 68.72781 | 12.73987 | 35026 ft | 459 kts | 3° |
| 2026-05-07 14:28 | 68.79138 | 12.75432 | 35021 ft | 458 kts | 3° |
| 2026-05-07 14:28 | 68.85487 | 12.76885 | 35019 ft | 457 kts | 3° |
| 2026-05-07 14:29 | 68.91825 | 12.78344 | 35012 ft | 456 kts | 3° |
| 2026-05-07 14:29 | 68.97085 | 12.79555 | 35020 ft | 456 kts | 3° |
| 2026-05-07 14:30 | 69.03407 | 12.81000 | 35018 ft | 456 kts | 3° |
| 2026-05-07 14:30 | 69.09737 | 12.82058 | 35024 ft | 456 kts | 2° |
| 2026-05-07 14:31 | 69.16071 | 12.82966 | 35013 ft | 455 kts | 1° |
| 2026-05-07 14:31 | 69.22392 | 12.83908 | 35006 ft | 455 kts | 2° |
| 2026-05-07 14:32 | 69.28714 | 12.84885 | 35010 ft | 455 kts | 2° |
| 2026-05-07 14:32 | 69.35042 | 12.85891 | 35011 ft | 456 kts | 2° |
| 2026-05-07 14:33 | 69.41377 | 12.86911 | 35019 ft | 455 kts | 2° |
| 2026-05-07 14:33 | 69.47702 | 12.87934 | 35006 ft | 455 kts | 2° |
| 2026-05-07 14:34 | 69.54025 | 12.88957 | 35005 ft | 455 kts | 2° |
| 2026-05-07 14:34 | 69.60344 | 12.89990 | 35011 ft | 454 kts | 2° |
| 2026-05-07 14:35 | 69.66659 | 12.91031 | 35015 ft | 455 kts | 2° |
| 2026-05-07 14:35 | 69.72982 | 12.92076 | 35015 ft | 455 kts | 2° |
| 2026-05-07 14:36 | 69.79307 | 12.93127 | 35015 ft | 455 kts | 2° |
| 2026-05-07 14:36 | 69.85628 | 12.94185 | 35012 ft | 454 kts | 2° |
| 2026-05-07 14:37 | 69.91938 | 12.95245 | 35011 ft | 454 kts | 2° |
| 2026-05-07 14:37 | 70.01391 | 12.96845 | 35015 ft | 453 kts | 2° |
| 2026-05-07 14:38 | 70.07688 | 12.97932 | 35019 ft | 453 kts | 2° |
| 2026-05-07 14:38 | 70.13975 | 12.99014 | 35018 ft | 453 kts | 2° |
| 2026-05-07 14:39 | 70.20260 | 13.00089 | 35014 ft | 452 kts | 2° |
| 2026-05-07 14:39 | 70.26536 | 13.01176 | 35024 ft | 451 kts | 2° |
| 2026-05-07 14:40 | 70.32803 | 13.02272 | 35025 ft | 451 kts | 2° |
| 2026-05-07 14:40 | 70.39064 | 13.03380 | 35027 ft | 450 kts | 2° |
| 2026-05-07 14:41 | 70.45322 | 13.04484 | 35032 ft | 450 kts | 3° |
| 2026-05-07 14:41 | 70.51581 | 13.05595 | 35030 ft | 451 kts | 3° |
| 2026-05-07 14:42 | 70.57845 | 13.06714 | 35037 ft | 451 kts | 3° |
| 2026-05-07 14:42 | 70.64107 | 13.07852 | 35037 ft | 451 kts | 3° |
| 2026-05-07 14:43 | 70.70375 | 13.08991 | 35048 ft | 451 kts | 3° |
| 2026-05-07 14:43 | 70.76647 | 13.10145 | 35042 ft | 452 kts | 3° |
| 2026-05-07 14:44 | 70.82925 | 13.11291 | 35050 ft | 452 kts | 3° |
| 2026-05-07 14:44 | 70.89198 | 13.12441 | 35048 ft | 451 kts | 3° |
| 2026-05-07 14:45 | 70.95423 | 13.13604 | 35045 ft | 451 kts | 3° |
| 2026-05-07 14:45 | 71.01688 | 13.14780 | 35042 ft | 451 kts | 3° |
| 2026-05-07 14:46 | 71.07946 | 13.15955 | 35045 ft | 451 kts | 3° |
| 2026-05-07 14:46 | 71.14210 | 13.17151 | 35057 ft | 451 kts | 3° |
| 2026-05-07 14:47 | 71.20479 | 13.18346 | 35054 ft | 451 kts | 3° |
| 2026-05-07 14:47 | 71.26747 | 13.19551 | 35060 ft | 451 kts | 3° |
| 2026-05-07 14:48 | 71.33016 | 13.20764 | 35063 ft | 451 kts | 3° |
| 2026-05-07 14:48 | 71.39287 | 13.21978 | 35074 ft | 451 kts | 3° |
| 2026-05-07 14:49 | 71.45557 | 13.23207 | 35071 ft | 451 kts | 3° |
| 2026-05-07 14:49 | 71.51825 | 13.24442 | 35066 ft | 451 kts | 4° |
| 2026-05-07 14:50 | 71.58092 | 13.25693 | 35074 ft | 451 kts | 4° |
| 2026-05-07 14:50 | 71.64355 | 13.26941 | 35068 ft | 451 kts | 4° |
| 2026-05-07 14:51 | 71.70619 | 13.28203 | 35082 ft | 451 kts | 4° |
| 2026-05-07 14:51 | 71.76885 | 13.29477 | 35079 ft | 451 kts | 4° |
| 2026-05-07 14:52 | 71.83152 | 13.30749 | 35082 ft | 451 kts | 4° |
| 2026-05-07 14:52 | 71.89414 | 13.32034 | 35083 ft | 451 kts | 4° |
| 2026-05-07 14:53 | 71.95679 | 13.33335 | 35085 ft | 451 kts | 4° |
| 2026-05-07 14:53 | 72.01954 | 13.34632 | 35088 ft | 452 kts | 4° |
| 2026-05-07 14:54 | 72.08228 | 13.35938 | 35092 ft | 452 kts | 4° |
| 2026-05-07 14:54 | 72.14505 | 13.37266 | 35096 ft | 452 kts | 4° |
| 2026-05-07 14:55 | 72.20786 | 13.38601 | 35103 ft | 452 kts | 4° |
| 2026-05-07 14:55 | 72.27065 | 13.39947 | 35106 ft | 452 kts | 4° |
| 2026-05-07 14:56 | 72.33338 | 13.41300 | 35099 ft | 452 kts | 4° |
| 2026-05-07 14:56 | 72.39608 | 13.42657 | 35110 ft | 451 kts | 4° |
| 2026-05-07 14:57 | 72.45874 | 13.44030 | 35110 ft | 451 kts | 4° |
| 2026-05-07 14:57 | 72.52132 | 13.45412 | 35107 ft | 451 kts | 4° |
| 2026-05-07 14:58 | 72.58399 | 13.46783 | 35117 ft | 451 kts | 5° |
| 2026-05-07 14:58 | 72.64663 | 13.48177 | 35120 ft | 451 kts | 5° |
| 2026-05-07 14:59 | 72.70927 | 13.49586 | 35122 ft | 451 kts | 5° |
| 2026-05-07 14:59 | 72.77188 | 13.51001 | 35125 ft | 451 kts | 4° |
| 2026-05-07 15:00 | 72.83448 | 13.52424 | 35138 ft | 451 kts | 5° |
| 2026-05-07 15:00 | 72.89705 | 13.53859 | 35131 ft | 451 kts | 5° |
| 2026-05-07 15:01 | 72.95962 | 13.55297 | 35139 ft | 450 kts | 5° |
| 2026-05-07 15:01 | 73.02215 | 13.56742 | 35143 ft | 450 kts | 5° |
| 2026-05-07 15:02 | 73.08471 | 13.58213 | 35152 ft | 451 kts | 5° |
| 2026-05-07 15:02 | 73.14727 | 13.59699 | 35149 ft | 451 kts | 5° |
| 2026-05-07 15:03 | 73.20986 | 13.61180 | 35156 ft | 451 kts | 5° |
| 2026-05-07 15:03 | 73.27212 | 13.62671 | 35161 ft | 451 kts | 5° |
| 2026-05-07 15:04 | 73.33480 | 13.64182 | 35159 ft | 452 kts | 5° |
| 2026-05-07 15:04 | 73.39791 | 13.65715 | 35173 ft | 452 kts | 5° |
| 2026-05-07 15:05 | 73.46025 | 13.67241 | 35173 ft | 452 kts | 5° |
| 2026-05-07 15:05 | 73.52303 | 13.68787 | 35180 ft | 452 kts | 5° |
| 2026-05-07 15:06 | 73.58579 | 13.70342 | 35179 ft | 452 kts | 5° |
| 2026-05-07 15:06 | 73.64856 | 13.71908 | 35195 ft | 452 kts | 5° |
| 2026-05-07 15:07 | 73.71133 | 13.73499 | 35192 ft | 452 kts | 6° |
| 2026-05-07 15:07 | 73.77403 | 13.75087 | 35190 ft | 452 kts | 5° |
| 2026-05-07 15:08 | 73.83672 | 13.76692 | 35200 ft | 452 kts | 6° |
| 2026-05-07 15:08 | 73.89944 | 13.78304 | 35199 ft | 452 kts | 6° |
| 2026-05-07 15:09 | 73.96215 | 13.79940 | 35205 ft | 452 kts | 6° |
| 2026-05-07 15:09 | 74.02482 | 13.81578 | 35208 ft | 451 kts | 5° |
| 2026-05-07 15:10 | 74.08748 | 13.83225 | 35215 ft | 451 kts | 6° |
| 2026-05-07 15:10 | 74.15011 | 13.84891 | 35215 ft | 451 kts | 5° |
| 2026-05-07 15:11 | 74.21274 | 13.86571 | 35220 ft | 451 kts | 5° |
| 2026-05-07 15:11 | 74.27537 | 13.88262 | 35222 ft | 451 kts | 5° |
| 2026-05-07 15:12 | 74.33799 | 13.89955 | 35221 ft | 451 kts | 6° |
| 2026-05-07 15:12 | 74.40062 | 13.91673 | 35223 ft | 451 kts | 5° |
| 2026-05-07 15:13 | 74.45270 | 13.93109 | 35225 ft | 452 kts | 5° |
| 2026-05-07 15:13 | 74.51536 | 13.94860 | 35223 ft | 452 kts | 6° |
| 2026-05-07 15:14 | 74.57800 | 13.96613 | 35226 ft | 451 kts | 5° |
| 2026-05-07 15:14 | 74.64064 | 13.98385 | 35219 ft | 451 kts | 6° |
| 2026-05-07 15:15 | 74.70327 | 14.00182 | 35241 ft | 451 kts | 6° |
| 2026-05-07 15:15 | 74.76590 | 14.01977 | 35226 ft | 452 kts | 6° |
| 2026-05-07 15:16 | 74.82853 | 14.03783 | 35232 ft | 451 kts | 6° |
| 2026-05-07 15:16 | 74.89115 | 14.05608 | 35246 ft | 451 kts | 6° |
| 2026-05-07 15:17 | 74.95371 | 14.07452 | 35241 ft | 450 kts | 6° |
| 2026-05-07 15:17 | 75.01625 | 14.09294 | 35236 ft | 451 kts | 6° |
| 2026-05-07 15:18 | 75.07874 | 14.11165 | 35248 ft | 450 kts | 6° |
| 2026-05-07 15:18 | 75.14120 | 14.13063 | 35248 ft | 450 kts | 6° |
| 2026-05-07 15:19 | 75.20315 | 14.14945 | 35240 ft | 450 kts | 6° |
| 2026-05-07 15:19 | 75.26555 | 14.16860 | 35259 ft | 450 kts | 6° |
| 2026-05-07 15:20 | 75.32793 | 14.18785 | 35254 ft | 449 kts | 6° |
| 2026-05-07 15:20 | 75.39028 | 14.20723 | 35258 ft | 449 kts | 6° |
| 2026-05-07 15:21 | 75.45258 | 14.22668 | 35270 ft | 449 kts | 6° |
| 2026-05-07 15:21 | 75.51481 | 14.24649 | 35263 ft | 448 kts | 6° |
| 2026-05-07 15:22 | 75.57702 | 14.26639 | 35263 ft | 449 kts | 6° |
| 2026-05-07 15:22 | 75.63923 | 14.28643 | 35272 ft | 449 kts | 6° |
| 2026-05-07 15:23 | 75.70147 | 14.30664 | 35276 ft | 449 kts | 6° |
| 2026-05-07 15:23 | 75.76366 | 14.32707 | 35270 ft | 448 kts | 6° |
| 2026-05-07 15:24 | 75.82583 | 14.34761 | 35272 ft | 448 kts | 6° |
| 2026-05-07 15:24 | 75.88796 | 14.36834 | 35275 ft | 447 kts | 6° |
| 2026-05-07 15:25 | 75.94994 | 14.38920 | 35280 ft | 447 kts | 6° |
| 2026-05-07 15:25 | 76.01192 | 14.41023 | 35278 ft | 447 kts | 6° |
| 2026-05-07 15:26 | 76.07382 | 14.43145 | 35283 ft | 446 kts | 6° |
| 2026-05-07 15:26 | 76.13567 | 14.45285 | 35294 ft | 446 kts | 6° |
| 2026-05-07 15:27 | 76.19758 | 14.47444 | 35287 ft | 446 kts | 6° |
| 2026-05-07 15:27 | 76.25955 | 14.49620 | 35080 ft | 449 kts | 6° |
| 2026-05-07 15:28 | 76.29062 | 14.50719 | 34732 ft | 446 kts | 6° |
| 2026-05-07 15:28 | 76.32138 | 14.51808 | 34326 ft | 441 kts | 6° |
| 2026-05-07 15:28 | 76.35180 | 14.52894 | 33855 ft | 437 kts | 6° |
| 2026-05-07 15:28 | 76.38197 | 14.53976 | 33403 ft | 432 kts | 6° |
| 2026-05-07 15:29 | 76.41176 | 14.54253 | 33180 ft | 424 kts | 360° |
| 2026-05-07 15:29 | 76.44085 | 14.53689 | 32834 ft | 413 kts | 358° |
| 2026-05-07 15:29 | 76.46934 | 14.52932 | 32140 ft | 408 kts | 358° |
| 2026-05-07 15:29 | 76.49755 | 14.52132 | 31458 ft | 405 kts | 358° |
| 2026-05-07 15:30 | 76.52547 | 14.51365 | 30877 ft | 399 kts | 358° |
| 2026-05-07 15:30 | 76.55288 | 14.50659 | 30355 ft | 391 kts | 358° |
| 2026-05-07 15:30 | 76.57984 | 14.50009 | 29846 ft | 386 kts | 358° |
| 2026-05-07 15:30 | 76.60652 | 14.49381 | 29432 ft | 381 kts | 358° |
| 2026-05-07 15:31 | 76.63282 | 14.48776 | 29042 ft | 376 kts | 358° |
| 2026-05-07 15:31 | 76.65886 | 14.48188 | 28657 ft | 372 kts | 358° |
| 2026-05-07 15:31 | 76.68422 | 14.47622 | 28279 ft | 368 kts | 358° |
| 2026-05-07 15:31 | 76.70965 | 14.47055 | 27893 ft | 364 kts | 358° |
| 2026-05-07 15:32 | 76.73477 | 14.46493 | 27526 ft | 360 kts | 358° |
| 2026-05-07 15:32 | 76.75970 | 14.45933 | 27146 ft | 357 kts | 358° |
| 2026-05-07 15:32 | 76.78436 | 14.45373 | 26776 ft | 353 kts | 358° |
| 2026-05-07 15:32 | 76.80881 | 14.44816 | 26402 ft | 350 kts | 358° |
| 2026-05-07 15:33 | 76.83307 | 14.44263 | 26046 ft | 347 kts | 358° |
| 2026-05-07 15:33 | 76.85708 | 14.43714 | 25686 ft | 345 kts | 359° |
| 2026-05-07 15:33 | 76.88094 | 14.43169 | 25327 ft | 342 kts | 359° |
| 2026-05-07 15:33 | 76.90461 | 14.42627 | 24974 ft | 340 kts | 359° |
| 2026-05-07 15:34 | 76.92816 | 14.42084 | 24631 ft | 337 kts | 359° |
| 2026-05-07 15:34 | 76.95152 | 14.41539 | 24283 ft | 336 kts | 359° |
| 2026-05-07 15:34 | 76.97478 | 14.40999 | 23939 ft | 334 kts | 359° |
| 2026-05-07 15:34 | 76.99793 | 14.40458 | 23534 ft | 332 kts | 359° |
| 2026-05-07 15:35 | 77.02090 | 14.39916 | 23174 ft | 329 kts | 359° |
| 2026-05-07 15:35 | 77.04365 | 14.39380 | 22834 ft | 326 kts | 359° |
| 2026-05-07 15:35 | 77.06633 | 14.38846 | 22497 ft | 325 kts | 359° |
| 2026-05-07 15:35 | 77.08892 | 14.38310 | 22155 ft | 326 kts | 359° |
| 2026-05-07 15:36 | 77.11180 | 14.37772 | 21809 ft | 334 kts | 358° |
| 2026-05-07 15:36 | 77.13528 | 14.37216 | 21445 ft | 340 kts | 358° |
| 2026-05-07 15:36 | 77.15881 | 14.36652 | 21081 ft | 337 kts | 358° |
| 2026-05-07 15:36 | 77.18211 | 14.36087 | 20721 ft | 334 kts | 358° |
| 2026-05-07 15:37 | 77.20522 | 14.35528 | 20369 ft | 331 kts | 358° |
| 2026-05-07 15:37 | 77.22808 | 14.34972 | 20012 ft | 328 kts | 359° |
| 2026-05-07 15:37 | 77.25079 | 14.34419 | 19678 ft | 326 kts | 359° |
| 2026-05-07 15:37 | 77.27304 | 14.33885 | 19331 ft | 323 kts | 359° |
| 2026-05-07 15:38 | 77.29536 | 14.33344 | 18991 ft | 320 kts | 359° |
| 2026-05-07 15:38 | 77.31752 | 14.32798 | 18656 ft | 318 kts | 359° |
| 2026-05-07 15:38 | 77.33955 | 14.32251 | 18277 ft | 316 kts | 358° |
| 2026-05-07 15:38 | 77.36143 | 14.31703 | 17946 ft | 313 kts | 358° |
| 2026-05-07 15:39 | 77.38309 | 14.31161 | 17610 ft | 310 kts | 358° |
| 2026-05-07 15:39 | 77.40453 | 14.30627 | 17277 ft | 307 kts | 359° |
| 2026-05-07 15:39 | 77.42580 | 14.30098 | 16964 ft | 304 kts | 359° |
| 2026-05-07 15:39 | 77.44688 | 14.29571 | 16615 ft | 302 kts | 358° |
| 2026-05-07 15:40 | 77.46780 | 14.29042 | 16287 ft | 300 kts | 358° |
| 2026-05-07 15:40 | 77.48851 | 14.28520 | 15986 ft | 297 kts | 359° |
| 2026-05-07 15:40 | 77.50909 | 14.28002 | 15656 ft | 296 kts | 358° |
| 2026-05-07 15:40 | 77.52963 | 14.27479 | 15326 ft | 295 kts | 359° |
| 2026-05-07 15:41 | 77.55041 | 14.26952 | 14761 ft | 302 kts | 358° |
| 2026-05-07 15:41 | 77.57138 | 14.26418 | 14383 ft | 302 kts | 358° |
| 2026-05-07 15:41 | 77.59237 | 14.25879 | 14025 ft | 301 kts | 359° |
| 2026-05-07 15:41 | 77.61324 | 14.25344 | 13664 ft | 299 kts | 359° |
| 2026-05-07 15:42 | 77.63389 | 14.24813 | 13340 ft | 296 kts | 359° |
| 2026-05-07 15:42 | 77.65439 | 14.24284 | 13024 ft | 293 kts | 359° |
| 2026-05-07 15:42 | 77.67468 | 14.23753 | 12689 ft | 291 kts | 359° |
| 2026-05-07 15:42 | 77.69481 | 14.23223 | 12392 ft | 289 kts | 359° |
| 2026-05-07 15:43 | 77.71478 | 14.22700 | 12069 ft | 287 kts | 359° |
| 2026-05-07 15:43 | 77.73465 | 14.22179 | 11751 ft | 285 kts | 359° |
| 2026-05-07 15:43 | 77.75433 | 14.21658 | 11431 ft | 282 kts | 358° |
| 2026-05-07 15:43 | 77.77388 | 14.21142 | 11135 ft | 280 kts | 359° |
| 2026-05-07 15:44 | 77.79332 | 14.20627 | 10835 ft | 279 kts | 358° |
| 2026-05-07 15:44 | 77.81266 | 14.20115 | 10535 ft | 278 kts | 358° |
| 2026-05-07 15:44 | 77.83193 | 14.19602 | 10277 ft | 275 kts | 358° |
| 2026-05-07 15:44 | 77.85079 | 14.19100 | 10163 ft | 268 kts | 359° |
| 2026-05-07 15:45 | 77.86913 | 14.18610 | 10020 ft | 260 kts | 358° |
| 2026-05-07 15:45 | 77.88671 | 14.18134 | 9876 ft | 253 kts | 358° |
| 2026-05-07 15:45 | 77.90420 | 14.17661 | 9633 ft | 250 kts | 359° |
| 2026-05-07 15:45 | 77.92152 | 14.17195 | 9376 ft | 250 kts | 358° |
| 2026-05-07 15:46 | 77.95691 | 14.16238 | 8868 ft | 260 kts | 358° |
| 2026-05-07 15:46 | 77.97510 | 14.15743 | 8602 ft | 262 kts | 358° |
| 2026-05-07 15:46 | 77.99328 | 14.15245 | 8316 ft | 261 kts | 358° |
| 2026-05-07 15:47 | 78.01133 | 14.14747 | 8044 ft | 259 kts | 358° |
| 2026-05-07 15:47 | 78.02930 | 14.14254 | 7779 ft | 258 kts | 358° |
| 2026-05-07 15:47 | 78.04712 | 14.13762 | 7515 ft | 256 kts | 358° |
| 2026-05-07 15:47 | 78.06483 | 14.13271 | 7256 ft | 254 kts | 358° |
| 2026-05-07 15:48 | 78.08241 | 14.12782 | 6998 ft | 252 kts | 358° |
| 2026-05-07 15:48 | 78.09984 | 14.12297 | 6744 ft | 250 kts | 358° |
| 2026-05-07 15:48 | 78.11713 | 14.11815 | 6477 ft | 248 kts | 358° |
| 2026-05-07 15:48 | 78.13432 | 14.11335 | 6211 ft | 246 kts | 358° |
| 2026-05-07 15:49 | 78.15133 | 14.10856 | 5968 ft | 244 kts | 357° |
| 2026-05-07 15:49 | 78.16821 | 14.10378 | 5707 ft | 242 kts | 357° |
| 2026-05-07 15:49 | 78.18499 | 14.09901 | 5451 ft | 240 kts | 357° |
| 2026-05-07 15:49 | 78.20159 | 14.09428 | 5197 ft | 238 kts | 357° |
| 2026-05-07 15:50 | 78.21801 | 14.08961 | 5041 ft | 232 kts | 357° |
| 2026-05-07 15:50 | 78.23389 | 14.08635 | 4921 ft | 225 kts | 5° |
| 2026-05-07 15:50 | 78.24800 | 14.11255 | 4824 ft | 213 kts | 35° |
| 2026-05-07 15:50 | 78.26007 | 14.15342 | 4713 ft | 211 kts | 33° |
| 2026-05-07 15:51 | 78.27241 | 14.19396 | 4657 ft | 214 kts | 33° |
| 2026-05-07 15:51 | 78.28468 | 14.23455 | 4570 ft | 212 kts | 34° |
| 2026-05-07 15:51 | 78.29683 | 14.27612 | 4337 ft | 214 kts | 40° |
| 2026-05-07 15:51 | 78.30464 | 14.33728 | 4076 ft | 217 kts | 79° |
| 2026-05-07 15:52 | 78.30397 | 14.41146 | 3876 ft | 218 kts | 97° |
| 2026-05-07 15:52 | 78.30174 | 14.48555 | 3630 ft | 220 kts | 98° |
| 2026-05-07 15:52 | 78.29853 | 14.55923 | 3381 ft | 218 kts | 102° |
| 2026-05-07 15:52 | 78.29460 | 14.62935 | 3141 ft | 208 kts | 104° |
| 2026-05-07 15:53 | 78.29061 | 14.69577 | 2981 ft | 195 kts | 105° |
| 2026-05-07 15:53 | 78.28691 | 14.75773 | 2939 ft | 183 kts | 105° |
| 2026-05-07 15:53 | 78.28337 | 14.81794 | 2774 ft | 184 kts | 105° |
| 2026-05-07 15:53 | 78.27986 | 14.87785 | 2574 ft | 182 kts | 105° |
| 2026-05-07 15:54 | 78.27637 | 14.93750 | 2268 ft | 182 kts | 105° |
| 2026-05-07 15:54 | 78.27290 | 14.99716 | 1982 ft | 179 kts | 105° |
| 2026-05-07 15:54 | 78.26958 | 15.05485 | 1650 ft | 170 kts | 106° |
| 2026-05-07 15:54 | 78.26640 | 15.10865 | 1430 ft | 156 kts | 106° |
| 2026-05-07 15:55 | 78.26357 | 15.15800 | 1155 ft | 143 kts | 105° |
| 2026-05-07 15:55 | 78.26104 | 15.20220 | 1001 ft | 134 kts | 105° |
| 2026-05-07 15:55 | 78.25853 | 15.24624 | 803 ft | 132 kts | 105° |
| 2026-05-07 15:55 | 78.25608 | 15.28929 | 648 ft | 130 kts | 105° |
| 2026-05-07 15:56 | 78.25365 | 15.33244 | 472 ft | 131 kts | 105° |
| 2026-05-07 15:56 | 78.25119 | 15.37529 | 310 ft | 130 kts | 105° |
| 2026-05-07 15:56 | 78.24883 | 15.41751 | 99 ft | 127 kts | 104° |
| 2026-05-07 15:56 | 78.24679 | 15.45384 | 89 ft | 84 kts | 105° |
| 2026-05-07 15:57 | 78.24574 | 15.47244 | 96 ft | 34 kts | 106° |
| 2026-05-07 15:57 | 78.24545 | 15.47930 | 97 ft | 11 kts | 81° |
| 2026-05-07 15:57 | 78.24582 | 15.48232 | 97 ft | 10 kts | 74° |
| 2026-05-07 15:57 | 78.24593 | 15.48540 | 95 ft | 4 kts | 77° |
| 2026-05-07 15:58 | 78.24609 | 15.48674 | 97 ft | 4 kts | 49° |
| 2026-05-07 15:58 | 78.24622 | 15.48803 | 96 ft | 4 kts | 76° |
| 2026-05-07 15:58 | 78.24623 | 15.48877 | 97 ft | 2 kts | 91° |
| 2026-05-07 15:58 | 78.24622 | 15.49017 | 96 ft | 7 kts | 89° |
| 2026-05-07 15:59 | 78.24626 | 15.49155 | 96 ft | 3 kts | 77° |
| 2026-05-07 15:59 | 78.24630 | 15.49249 | 94 ft | 2 kts | 77° |
| 2026-05-07 15:59 | 78.24631 | 15.49260 | 94 ft | 0 kts | 77° |